Terminal Aerodrome Forecast
Issued by NWS Tallahassee, FL

Home | Current Version | Previous Version | Text Only | Print | Product List | Glossary On
Versions: 1 2 3 4 5 6 7 8 9 10 11 12 13 14 15 16 17 18 19 20 21 22 23
632
FTUS42 KTAE 201731
TAFTLH
TAF
KTLH 201731Z 2018/2118 22010KT 6SM -SHRA BKN020
     FM210200 19004KT P6SM BKN015
     FM210500 18005KT 3SM BR OVC005
     FM211000 17005KT 1SM -RA BR OVC003
     FM211400 19012G18KT 6SM -RA OVC015=

USA.gov is the U.S. government's official web portal to all federal, state and local government web resources and services.